Windsor, Missouri
Current Conditions -  °F | °C
As of 1:55 AM on Monday 24 Nov 2014 (Local Time) from KSZL Reporting Station
Overcast Overcast  
Wind Chill: 33°   Ceiling: 3200
Heat Index: 41°   Visibility: 10mi
Dew Point: 35°   Wind: 13mph
Humidity: 80%   Direction: 290°WNW
Pressure: 29.48"   Gusts: NA
Location:  38.53°N, 93.52°W
Report Text: KSZL 240755Z 29011KT 10SM OVC032 05/02 A2948 RMK AO2A SLP986 T00480016 $
Loading
Personal Weather Stations






























Interactive Weather Map New forecast layout! Learn more

10-Day Weather Forecast

Advertisements
Track Severe Weather on mobile